createdAt,value
2022-12-06T11:53:32.956Z,90.00
2022-12-06T11:54:33.080Z,90.00
2022-12-06T11:55:32.978Z,95.62
2022-12-06T11:56:34.148Z,101.25
2022-12-06T11:57:34.195Z,106.88
2022-12-06T11:58:34.192Z,106.88
2022-12-06T11:59:34.024Z,106.88
2022-12-06T12:00:34.075Z,106.88
2022-12-06T12:01:34.074Z,106.88
2022-12-06T12:02:34.196Z,106.88
2022-12-06T12:03:34.170Z,106.88
2022-12-06T12:04:34.005Z,101.25
2022-12-06T12:05:34.176Z,95.62
2022-12-06T12:06:34.057Z,95.62
2022-12-06T12:07:34.204Z,90.00
2022-12-06T12:08:34.085Z,90.00
2022-12-06T12:09:34.610Z,84.38
2022-12-06T12:10:34.055Z,78.75
2022-12-06T12:11:34.041Z,73.12
2022-12-06T12:12:34.018Z,61.88
2022-12-06T12:13:34.041Z,61.88
2022-12-06T12:14:34.100Z,61.88
2022-12-06T12:15:34.204Z,61.88
2022-12-06T12:16:34.077Z,61.88
2022-12-06T12:17:34.038Z,56.25
2022-12-06T12:18:33.994Z,56.25
2022-12-06T12:19:33.983Z,50.62
2022-12-06T12:20:34.104Z,56.25
2022-12-06T12:21:33.992Z,56.25
2022-12-06T12:22:35.021Z,56.25
2022-12-06T12:23:33.873Z,50.62
2022-12-06T12:24:38.327Z,50.62
2022-12-06T12:25:34.916Z,50.62
2022-12-06T12:26:33.903Z,50.62
2022-12-06T12:27:33.818Z,50.62
2022-12-06T12:28:34.093Z,50.62
2022-12-06T12:29:33.939Z,50.62
2022-12-06T12:30:33.799Z,50.62
2022-12-06T12:31:33.834Z,50.62
2022-12-06T12:32:34.127Z,50.62
2022-12-06T12:33:33.749Z,45.00
2022-12-06T12:34:34.762Z,45.00
2022-12-06T12:35:33.789Z,45.00
2022-12-06T12:36:34.024Z,39.38
2022-12-06T12:37:33.882Z,39.38
2022-12-06T12:38:33.909Z,39.38
2022-12-06T12:39:33.850Z,33.75
2022-12-06T12:40:33.826Z,33.75
2022-12-06T12:41:33.939Z,33.75
2022-12-06T12:42:33.887Z,39.38
2022-12-06T12:43:33.818Z,39.38
2022-12-06T12:44:38.422Z,39.38
2022-12-06T12:45:35.881Z,39.38
2022-12-06T12:46:33.839Z,39.38
2022-12-06T12:47:33.836Z,39.38
2022-12-06T12:48:33.779Z,39.38
2022-12-06T12:49:33.806Z,39.38
2022-12-06T12:50:33.833Z,39.38
2022-12-06T12:51:33.829Z,39.38
2022-12-06T12:52:33.793Z,39.38
2022-12-06T12:53:36.186Z,39.38
2022-12-06T12:54:33.639Z,39.38
2022-12-06T12:55:33.631Z,39.38
2022-12-06T12:56:33.689Z,39.38
2022-12-06T12:57:33.661Z,39.38
2022-12-06T12:58:36.184Z,39.38
2022-12-06T12:59:34.676Z,45.00
2022-12-06T13:00:33.665Z,45.00
2022-12-06T13:01:33.667Z,45.00
2022-12-06T13:02:33.747Z,45.00
2022-12-06T13:04:35.592Z,45.00
2022-12-06T13:05:35.001Z,50.62
2022-12-06T13:06:34.607Z,56.25
2022-12-06T13:07:33.671Z,61.88
2022-12-06T13:08:33.677Z,61.88
2022-12-06T13:09:33.634Z,61.88
2022-12-06T13:10:33.657Z,56.25
2022-12-06T13:11:33.599Z,50.62
2022-12-06T13:12:33.699Z,45.00
2022-12-06T13:13:33.641Z,45.00
2022-12-06T13:14:33.694Z,50.62
2022-12-06T13:15:33.632Z,50.62
2022-12-06T13:16:33.714Z,50.62
2022-12-06T13:17:33.669Z,50.62
2022-12-06T13:18:33.577Z,50.62
2022-12-06T13:19:33.682Z,50.62
2022-12-06T13:20:33.506Z,45.00
2022-12-06T13:21:33.589Z,45.00
2022-12-06T13:22:33.585Z,39.38
2022-12-06T13:23:33.448Z,39.38
2022-12-06T13:24:33.486Z,39.38
2022-12-06T13:25:33.558Z,33.75
2022-12-06T13:26:33.557Z,33.75
2022-12-06T13:27:33.566Z,28.12
2022-12-06T13:28:33.445Z,28.12
2022-12-06T13:29:33.512Z,28.12
2022-12-06T13:30:33.547Z,22.50
2022-12-06T13:31:33.596Z,22.50
2022-12-06T13:32:33.506Z,22.50
2022-12-06T13:33:33.468Z,22.50
2022-12-06T13:34:37.647Z,22.50
2022-12-06T13:35:34.463Z,22.50
2022-12-06T13:36:33.546Z,16.88
2022-12-06T13:37:34.657Z,16.88
2022-12-06T13:38:33.436Z,16.88
2022-12-06T13:39:33.382Z,16.88
2022-12-06T13:40:33.443Z,16.88
2022-12-06T13:41:33.302Z,22.50
2022-12-06T13:42:33.329Z,22.50
2022-12-06T13:43:38.055Z,16.88
2022-12-06T13:44:35.413Z,16.88
2022-12-06T13:45:33.292Z,16.88
2022-12-06T13:46:33.481Z,16.88
2022-12-06T13:47:33.326Z,16.88
2022-12-06T13:48:33.415Z,16.88
2022-12-06T13:49:38.558Z,16.88
2022-12-06T13:50:35.288Z,16.88
2022-12-06T13:51:33.403Z,16.88
2022-12-06T13:52:33.325Z,16.88
2022-12-06T13:53:33.581Z,16.88
2022-12-06T13:54:33.305Z,16.88
2022-12-06T13:55:33.301Z,16.88
2022-12-06T13:56:33.288Z,16.88
2022-12-06T13:57:33.311Z,16.88
2022-12-06T13:58:33.390Z,16.88
2022-12-06T13:59:33.452Z,16.88
2022-12-06T14:00:33.304Z,16.88
2022-12-06T14:01:38.312Z,16.88
2022-12-06T14:02:35.315Z,16.88
2022-12-06T14:03:33.154Z,16.88
